Time;durP1;ratioP1;P1;durP2;ratioP2;P2;SDS_P1;SDS_P2;PMS_P1;PMS_P2;Temp;Humidity;BMP_temperature;BMP_pressure;BME280_temperature;BME280_humidity;BME280_pressure;Samples;Min_cycle;Max_cycle;Signal;HPM_P1;HPM_P2
2021/05/14 00:00:08;;;;;;;1.40;1.30;;;10.00;99.90;;;;;;5100160;28;20197;-81
2021/05/14 00:02:34;;;;;;;1.50;1.30;;;9.90;99.90;;;;;;5104340;28;20205;-78
2021/05/14 00:05:00;;;;;;;1.10;0.98;;;10.00;99.90;;;;;;5104843;28;20217;-81
2021/05/14 00:07:27;;;;;;;2.15;1.45;;;10.10;99.90;;;;;;5101732;28;20592;-82
2021/05/14 00:09:54;;;;;;;1.48;1.30;;;10.10;99.90;;;;;;5100108;28;20222;-82
2021/05/14 00:12:21;;;;;;;1.50;1.40;;;10.10;99.90;;;;;;5099382;28;20206;-82
2021/05/14 00:14:47;;;;;;;1.40;1.30;;;10.10;99.90;;;;;;5099348;28;20236;-82
2021/05/14 00:17:13;;;;;;;2.08;1.50;;;10.00;99.90;;;;;;5100552;28;20213;-82
2021/05/14 00:19:39;;;;;;;1.85;1.75;;;10.10;99.90;;;;;;5099531;28;20261;-82
2021/05/14 00:22:06;;;;;;;2.05;1.52;;;10.00;99.90;;;;;;5099681;28;20205;-82
2021/05/14 00:24:32;;;;;;;1.70;1.60;;;10.00;99.90;;;;;;5099728;28;20251;-82
2021/05/14 00:26:58;;;;;;;3.00;1.52;;;10.00;99.90;;;;;;5099723;28;20200;-82
2021/05/14 00:29:26;;;;;;;1.80;1.67;;;10.00;99.90;;;;;;5099701;28;20225;-82
2021/05/14 00:31:52;;;;;;;1.27;1.15;;;9.90;99.90;;;;;;5100011;28;20216;-82
2021/05/14 00:34:18;;;;;;;1.55;1.45;;;9.90;99.90;;;;;;5099383;28;20311;-82
2021/05/14 00:36:44;;;;;;;1.20;1.20;;;9.90;99.90;;;;;;5099820;28;20208;-82
2021/05/14 00:39:11;;;;;;;1.50;1.40;;;10.00;99.90;;;;;;5099832;28;20201;-79
2021/05/14 00:41:37;;;;;;;2.15;1.63;;;10.00;99.90;;;;;;5098963;28;20220;-82
2021/05/14 00:44:26;;;;;;;1.40;1.20;;;10.00;99.90;;;;;;5098552;28;20230;-82
2021/05/14 00:46:53;;;;;;;1.58;1.48;;;10.00;99.90;;;;;;5099499;28;20226;-79
2021/05/14 00:49:20;;;;;;;1.48;1.35;;;10.00;99.90;;;;;;5099051;28;20208;-80
2021/05/14 00:51:46;;;;;;;2.22;1.10;;;9.80;99.90;;;;;;5098796;28;20209;-82
2021/05/14 00:54:14;;;;;;;1.10;1.10;;;9.70;99.90;;;;;;5099473;28;20228;-82
2021/05/14 00:56:41;;;;;;;1.48;1.38;;;9.70;99.90;;;;;;5099521;28;20559;-82
2021/05/14 00:59:07;;;;;;;3.55;1.33;;;9.70;99.90;;;;;;5099422;28;20591;-80
2021/05/14 01:01:34;;;;;;;1.13;1.13;;;9.60;99.90;;;;;;5098024;28;20246;-80
2021/05/14 01:04:00;;;;;;;0.98;0.95;;;9.70;99.90;;;;;;5098850;28;20224;-82
2021/05/14 01:06:27;;;;;;;1.60;1.60;;;9.70;99.90;;;;;;5099015;28;20253;-82
2021/05/14 01:08:54;;;;;;;1.45;1.35;;;9.70;99.90;;;;;;5098487;28;20739;-79
2021/05/14 01:11:21;;;;;;;1.92;1.70;;;9.60;99.90;;;;;;5098655;28;20238;-77
2021/05/14 01:13:47;;;;;;;1.35;1.25;;;9.60;99.90;;;;;;5098454;28;20224;-82
2021/05/14 01:16:13;;;;;;;1.30;1.20;;;9.70;99.90;;;;;;5098697;28;20215;-82
2021/05/14 01:18:40;;;;;;;1.40;1.30;;;9.60;99.90;;;;;;5099053;28;20197;-79
2021/05/14 01:21:07;;;;;;;1.25;1.15;;;9.60;99.90;;;;;;5098523;28;20220;-82
2021/05/14 01:23:34;;;;;;;1.42;1.33;;;9.60;99.90;;;;;;5098258;28;20278;-79
2021/05/14 01:26:00;;;;;;;1.33;1.23;;;9.70;99.90;;;;;;5098358;28;20277;-82
2021/05/14 01:28:26;;;;;;;1.55;1.45;;;9.80;99.90;;;;;;5098956;28;20562;-82
2021/05/14 01:30:53;;;;;;;1.40;1.30;;;9.80;99.90;;;;;;5098189;28;20231;-82
2021/05/14 01:33:20;;;;;;;1.98;1.60;;;9.80;99.90;;;;;;5097796;28;20610;-80
2021/05/14 01:35:46;;;;;;;1.83;1.38;;;9.90;99.90;;;;;;5101507;28;20208;-81
2021/05/14 01:38:13;;;;;;;1.35;1.35;;;9.90;99.90;;;;;;5104060;28;20205;-82
2021/05/14 01:40:40;;;;;;;2.53;1.20;;;9.90;99.90;;;;;;5104088;28;20212;-81
2021/05/14 01:43:07;;;;;;;1.50;1.40;;;9.80;99.90;;;;;;5102250;28;20235;-82
2021/05/14 01:45:33;;;;;;;1.55;1.55;;;9.80;99.90;;;;;;5102268;28;20265;-82
2021/05/14 01:47:59;;;;;;;1.95;1.85;;;9.80;99.90;;;;;;5097984;28;20208;-82
2021/05/14 01:50:25;;;;;;;1.48;1.38;;;9.80;99.90;;;;;;5098454;28;20226;-82
2021/05/14 01:52:51;;;;;;;1.80;1.70;;;9.60;99.90;;;;;;5098078;28;20266;-82
2021/05/14 01:55:19;;;;;;;1.75;1.65;;;9.50;99.90;;;;;;5098235;28;20702;-82
2021/05/14 01:57:45;;;;;;;1.65;1.55;;;9.50;99.90;;;;;;5098200;28;20211;-82
2021/05/14 02:00:12;;;;;;;2.40;2.20;;;9.40;99.90;;;;;;5098109;28;20197;-82
2021/05/14 02:02:38;;;;;;;1.40;1.30;;;9.40;99.90;;;;;;5097637;28;20205;-80
2021/05/14 02:05:05;;;;;;;1.40;1.30;;;9.40;99.90;;;;;;5097598;28;20201;-82
2021/05/14 02:07:32;;;;;;;1.35;1.27;;;9.30;99.90;;;;;;5098259;28;20208;-82
2021/05/14 02:09:58;;;;;;;2.78;1.50;;;9.30;99.90;;;;;;5097944;28;20782;-79
2021/05/14 02:12:25;;;;;;;2.13;1.75;;;9.30;99.90;;;;;;5096985;28;20208;-80
2021/05/14 02:14:52;;;;;;;1.67;1.58;;;9.20;99.90;;;;;;5097669;28;20224;-82
2021/05/14 02:17:18;;;;;;;1.55;1.45;;;9.10;99.90;;;;;;5097895;28;20210;-82
2021/05/14 02:19:44;;;;;;;1.85;1.60;;;9.10;99.90;;;;;;5098227;28;20229;-79
2021/05/14 02:22:11;;;;;;;1.50;1.40;;;9.00;99.90;;;;;;5097696;28;20199;-79
2021/05/14 02:24:37;;;;;;;3.60;1.45;;;8.90;99.90;;;;;;5097007;28;20224;-81
2021/05/14 02:27:04;;;;;;;1.70;1.60;;;9.00;99.90;;;;;;5097594;28;20215;-81
2021/05/14 02:29:33;;;;;;;1.70;1.63;;;9.00;99.90;;;;;;5097594;28;20819;-82
2021/05/14 02:32:00;;;;;;;1.95;1.70;;;8.90;99.90;;;;;;5106176;28;20200;-77
2021/05/14 02:34:27;;;;;;;2.10;2.00;;;8.90;99.90;;;;;;5111692;28;20238;-77
2021/05/14 02:36:53;;;;;;;1.85;1.75;;;8.90;99.90;;;;;;5112459;28;20208;-77
2021/05/14 02:39:19;;;;;;;2.40;2.30;;;8.90;99.90;;;;;;5107576;28;20222;-81
2021/05/14 02:41:46;;;;;;;1.45;1.45;;;8.90;99.90;;;;;;5097759;28;20205;-82
2021/05/14 02:44:12;;;;;;;1.50;1.40;;;8.80;99.90;;;;;;5097097;28;20216;-82
2021/05/14 02:46:41;;;;;;;1.63;1.52;;;8.80;99.90;;;;;;5097627;28;20204;-82
2021/05/14 02:49:07;;;;;;;2.15;1.60;;;8.70;99.90;;;;;;5097605;28;20211;-80
2021/05/14 02:51:34;;;;;;;1.88;1.70;;;8.70;99.90;;;;;;5097443;28;20205;-81
2021/05/14 02:54:00;;;;;;;1.55;1.45;;;8.70;99.90;;;;;;5097269;28;20749;-81
2021/05/14 02:56:28;;;;;;;1.60;1.50;;;8.70;99.90;;;;;;5097642;28;20204;-82
2021/05/14 02:58:54;;;;;;;1.73;1.63;;;8.80;99.90;;;;;;5096376;28;20200;-81
2021/05/14 03:01:21;;;;;;;2.00;1.90;;;8.70;99.90;;;;;;5095554;28;20692;-78
2021/05/14 03:03:48;;;;;;;1.70;1.60;;;8.70;99.90;;;;;;5097181;28;20344;-81
2021/05/14 03:06:14;;;;;;;3.80;1.75;;;8.60;99.90;;;;;;5097899;28;20235;-82
2021/05/14 03:08:40;;;;;;;2.08;1.50;;;8.60;99.90;;;;;;5097686;28;20215;-81
2021/05/14 03:11:07;;;;;;;1.75;1.65;;;8.60;99.90;;;;;;5097491;28;20196;-82
2021/05/14 03:13:33;;;;;;;2.03;1.77;;;8.50;99.90;;;;;;5100143;28;20224;-81
2021/05/14 03:16:00;;;;;;;1.90;1.80;;;8.40;99.90;;;;;;5102160;28;20208;-80
2021/05/14 03:18:26;;;;;;;1.63;1.42;;;8.40;99.90;;;;;;5098407;28;20260;-81
2021/05/14 03:20:55;;;;;;;2.60;2.40;;;8.40;99.90;;;;;;5098336;28;20765;-82
2021/05/14 03:23:21;;;;;;;1.55;1.45;;;8.40;99.90;;;;;;5098069;28;20224;-82
2021/05/14 03:25:47;;;;;;;2.42;2.22;;;8.40;99.90;;;;;;5101890;28;20209;-82
2021/05/14 03:28:13;;;;;;;1.52;1.42;;;8.40;99.90;;;;;;5101907;28;20794;-82
2021/05/14 03:30:41;;;;;;;1.90;1.80;;;8.40;99.90;;;;;;5101374;28;20200;-79
2021/05/14 03:33:07;;;;;;;3.47;2.17;;;8.40;99.90;;;;;;5101075;28;20729;-82
2021/05/14 03:35:34;;;;;;;3.47;2.10;;;8.40;99.90;;;;;;5101219;28;20250;-82
2021/05/14 03:38:02;;;;;;;1.55;1.45;;;8.40;99.90;;;;;;5100989;28;20235;-81
2021/05/14 03:40:35;;;;;;;2.38;1.90;;;8.50;99.90;;;;;;5101566;28;20224;-80
2021/05/14 03:43:03;;;;;;;2.38;2.20;;;8.50;99.90;;;;;;5101076;28;20541;-81
2021/05/14 03:45:29;;;;;;;2.00;1.90;;;8.50;99.90;;;;;;5101356;28;20200;-82
2021/05/14 03:47:57;;;;;;;1.70;1.60;;;8.40;99.90;;;;;;5101219;28;20230;-84
2021/05/14 03:50:27;;;;;;;1.52;1.42;;;8.40;99.90;;;;;;5100961;28;20245;-81
2021/05/14 03:52:53;;;;;;;1.77;1.67;;;8.40;99.90;;;;;;5100729;28;20733;-81
2021/05/14 03:55:21;;;;;;;2.50;1.80;;;8.40;99.90;;;;;;5100356;28;20212;-82
2021/05/14 03:57:47;;;;;;;2.03;1.92;;;8.40;99.90;;;;;;5100616;28;20231;-81
2021/05/14 04:00:14;;;;;;;3.67;1.75;;;8.30;99.90;;;;;;5100226;28;20229;-83
2021/05/14 04:02:40;;;;;;;1.80;1.67;;;8.10;99.90;;;;;;5100306;28;20208;-83
2021/05/14 04:05:08;;;;;;;2.38;2.17;;;8.20;99.90;;;;;;5100110;28;20205;-83
2021/05/14 04:07:34;;;;;;;1.98;1.88;;;8.20;99.90;;;;;;5100996;28;20216;-83
2021/05/14 04:10:11;;;;;;;1.95;1.65;;;8.20;99.90;;;;;;5099735;28;20209;-82
2021/05/14 04:15:23;;;;;;;2.35;2.15;;;8.20;99.90;;;;;;5100397;28;20211;-83
2021/05/14 04:17:49;;;;;;;2.20;2.03;;;8.30;99.90;;;;;;5100559;28;20208;-83
2021/05/14 04:20:15;;;;;;;1.63;1.52;;;8.30;99.90;;;;;;5099596;28;20230;-83
2021/05/14 04:22:42;;;;;;;3.20;1.92;;;8.30;99.90;;;;;;5099369;28;20204;-83
2021/05/14 04:25:09;;;;;;;2.40;2.20;;;8.30;99.90;;;;;;5099387;28;20207;-83
2021/05/14 04:27:35;;;;;;;1.65;1.55;;;8.30;99.90;;;;;;5099786;28;20208;-80
2021/05/14 04:30:02;;;;;;;3.15;2.03;;;8.40;99.90;;;;;;5100017;28;20204;-82
2021/05/14 04:32:29;;;;;;;1.77;1.40;;;8.40;99.90;;;;;;5099276;28;20204;-83
2021/05/14 04:34:55;;;;;;;2.00;1.90;;;8.30;99.90;;;;;;5099263;28;20228;-81
2021/05/14 04:37:21;;;;;;;2.05;1.75;;;8.30;99.90;;;;;;5099401;28;20201;-81
2021/05/14 04:39:47;;;;;;;1.95;1.85;;;8.40;99.90;;;;;;5099143;28;20228;-82
2021/05/14 04:42:14;;;;;;;1.48;1.38;;;8.40;99.90;;;;;;5099252;28;20205;-83
2021/05/14 04:44:40;;;;;;;2.58;2.08;;;8.40;99.90;;;;;;5099569;28;20235;-82
2021/05/14 04:47:07;;;;;;;1.77;1.55;;;8.40;99.90;;;;;;5099555;28;20205;-82
2021/05/14 04:49:33;;;;;;;2.30;2.10;;;8.40;99.90;;;;;;5099522;28;20219;-79
2021/05/14 04:52:00;;;;;;;2.55;1.85;;;8.50;99.90;;;;;;5099254;28;20576;-80
2021/05/14 04:54:26;;;;;;;1.52;1.42;;;8.50;99.90;;;;;;5099332;28;20326;-81
2021/05/14 04:56:53;;;;;;;2.10;1.92;;;8.50;99.90;;;;;;5099477;28;20215;-82
2021/05/14 04:59:20;;;;;;;2.03;1.83;;;8.50;99.90;;;;;;5099475;28;20224;-79
2021/05/14 05:01:46;;;;;;;1.70;1.60;;;8.50;99.90;;;;;;5098997;28;20293;-82
2021/05/14 05:04:14;;;;;;;1.30;1.20;;;8.50;99.90;;;;;;5100334;28;20234;-80
2021/05/14 05:06:41;;;;;;;2.47;1.73;;;8.60;99.90;;;;;;5100271;28;20208;-80
2021/05/14 05:09:07;;;;;;;1.70;1.60;;;8.60;99.90;;;;;;5100712;28;20571;-78
2021/05/14 05:11:33;;;;;;;1.45;1.35;;;8.60;99.90;;;;;;5100531;28;20208;-80
2021/05/14 05:14:00;;;;;;;1.70;1.60;;;8.70;99.90;;;;;;5100252;28;20243;-81
2021/05/14 05:16:26;;;;;;;1.88;1.77;;;8.80;99.90;;;;;;5100409;28;20204;-81
2021/05/14 05:18:52;;;;;;;1.70;1.60;;;8.80;99.90;;;;;;5099733;28;20208;-80
2021/05/14 05:21:19;;;;;;;2.13;1.85;;;8.80;99.90;;;;;;5100684;28;20228;-80
2021/05/14 05:23:46;;;;;;;2.25;1.48;;;8.80;99.90;;;;;;5100211;28;20224;-81
2021/05/14 05:26:12;;;;;;;1.45;1.40;;;8.90;99.90;;;;;;5100329;28;20209;-80
2021/05/14 05:28:38;;;;;;;1.85;1.65;;;9.00;99.90;;;;;;5100830;28;20261;-80
2021/05/14 05:31:05;;;;;;;1.25;1.25;;;9.10;99.90;;;;;;5100879;28;20239;-80
2021/05/14 05:33:31;;;;;;;1.70;1.50;;;9.20;99.90;;;;;;5099997;28;20328;-79
2021/05/14 05:35:57;;;;;;;1.55;1.45;;;9.40;99.90;;;;;;5100318;28;20223;-81
2021/05/14 05:38:25;;;;;;;1.52;1.42;;;9.50;99.90;;;;;;5100445;28;20559;-80
2021/05/14 05:40:51;;;;;;;1.42;1.40;;;9.60;99.90;;;;;;5100308;28;20229;-80
2021/05/14 05:43:18;;;;;;;1.45;1.30;;;9.70;99.90;;;;;;5099372;28;20229;-80
2021/05/14 05:45:45;;;;;;;2.13;1.38;;;10.00;99.90;;;;;;5099804;28;20590;-80
2021/05/14 05:48:12;;;;;;;1.77;1.63;;;10.00;99.90;;;;;;5100086;28;20201;-81
2021/05/14 05:50:39;;;;;;;1.30;1.20;;;10.10;99.90;;;;;;5100426;28;20199;-80
2021/05/14 05:53:06;;;;;;;1.77;1.67;;;10.20;99.90;;;;;;5099135;28;20225;-80
2021/05/14 05:55:33;;;;;;;1.60;1.50;;;10.20;99.90;;;;;;5099867;28;20205;-80
2021/05/14 05:58:05;;;;;;;1.65;1.55;;;10.20;99.90;;;;;;5100331;28;20210;-81
2021/05/14 06:00:31;;;;;;;2.10;1.20;;;10.30;99.90;;;;;;5099876;28;20600;-80
2021/05/14 06:02:58;;;;;;;1.70;1.60;;;10.30;99.90;;;;;;5098845;28;20225;-81
2021/05/14 06:05:24;;;;;;;1.85;1.35;;;10.40;99.90;;;;;;5099717;28;20205;-81
2021/05/14 06:07:51;;;;;;;1.90;1.77;;;10.40;99.90;;;;;;5099891;28;20216;-81
2021/05/14 06:10:17;;;;;;;1.40;1.30;;;10.50;99.90;;;;;;5100086;28;20205;-81
2021/05/14 06:12:44;;;;;;;2.05;1.40;;;10.50;99.90;;;;;;5099487;28;20455;-80
2021/05/14 06:15:10;;;;;;;1.00;0.88;;;10.60;99.90;;;;;;5099527;28;20207;-80
2021/05/14 06:17:39;;;;;;;1.88;1.30;;;10.60;99.90;;;;;;5099505;28;20296;-80
2021/05/14 06:20:07;;;;;;;1.50;1.08;;;10.50;99.90;;;;;;5098955;28;20323;-79
2021/05/14 06:22:34;;;;;;;1.13;1.13;;;10.50;99.90;;;;;;5099866;28;20214;-80
2021/05/14 06:25:00;;;;;;;3.43;1.20;;;10.60;99.90;;;;;;5099617;28;20224;-80
2021/05/14 06:27:27;;;;;;;2.13;1.17;;;10.70;99.90;;;;;;5099764;28;20455;-81
2021/05/14 06:29:54;;;;;;;1.20;1.10;;;10.80;99.90;;;;;;5099352;28;20204;-80
2021/05/14 06:32:20;;;;;;;0.80;0.80;;;10.90;99.90;;;;;;5099457;28;20207;-80
2021/05/14 06:34:46;;;;;;;1.63;1.50;;;11.00;99.90;;;;;;5099307;28;20846;-80
2021/05/14 06:37:12;;;;;;;1.40;1.40;;;11.20;99.90;;;;;;5099234;28;20206;-80
2021/05/14 06:39:39;;;;;;;1.30;1.27;;;11.40;99.90;;;;;;5099223;28;20456;-80
2021/05/14 06:42:05;;;;;;;0.70;0.70;;;11.40;99.90;;;;;;5098816;28;20452;-80
2021/05/14 06:44:31;;;;;;;1.80;0.70;;;11.40;99.90;;;;;;5099368;28;20465;-81
2021/05/14 06:46:59;;;;;;;0.80;0.80;;;11.50;99.90;;;;;;5099825;28;20445;-81
2021/05/14 06:49:25;;;;;;;1.37;0.80;;;11.70;99.90;;;;;;5098731;28;20445;-81
2021/05/14 06:51:51;;;;;;;0.70;0.70;;;11.70;99.90;;;;;;5099621;28;20452;-80
2021/05/14 06:54:18;;;;;;;0.80;0.80;;;11.80;99.90;;;;;;5098797;28;20474;-81
2021/05/14 06:56:44;;;;;;;1.43;0.80;;;11.90;99.90;;;;;;5098990;28;20457;-80
2021/05/14 06:59:10;;;;;;;0.87;0.87;;;12.00;99.90;;;;;;5089460;28;20498;-80
2021/05/14 07:01:36;;;;;;;0.97;0.80;;;12.10;99.90;;;;;;5088902;28;20626;-80
2021/05/14 07:04:04;;;;;;;0.87;0.87;;;12.20;99.90;;;;;;5090812;28;20475;-79
2021/05/14 07:06:31;;;;;;;0.73;0.73;;;12.40;99.90;;;;;;5085229;28;20996;-79
2021/05/14 07:08:58;;;;;;;2.00;1.17;;;12.50;99.90;;;;;;5090116;28;20476;-79
2021/05/14 07:11:24;;;;;;;0.60;0.60;;;12.50;99.90;;;;;;5085462;28;20450;-80
2021/05/14 07:13:50;;;;;;;1.13;0.70;;;12.60;99.90;;;;;;5088294;28;20838;-79
2021/05/14 07:16:17;;;;;;;0.40;0.40;;;12.60;99.30;;;;;;5084837;28;20446;-78
2021/05/14 07:18:43;;;;;;;0.70;0.70;;;12.60;99.00;;;;;;5090158;28;20757;-80
2021/05/14 07:21:10;;;;;;;0.40;0.40;;;12.70;98.80;;;;;;5092503;28;20477;-79
2021/05/14 07:23:37;;;;;;;0.63;0.63;;;12.60;98.30;;;;;;5091414;28;20474;-79
2021/05/14 07:26:03;;;;;;;2.37;0.70;;;12.60;98.70;;;;;;5087924;28;20525;-79
2021/05/14 07:28:29;;;;;;;0.50;0.50;;;12.80;98.70;;;;;;5081498;28;20446;-79
2021/05/14 07:30:55;;;;;;;0.70;0.60;;;12.80;98.00;;;;;;5082312;28;20444;-79
2021/05/14 07:33:22;;;;;;;0.70;0.53;;;12.80;98.10;;;;;;5081268;28;20531;-79
2021/05/14 07:35:48;;;;;;;0.50;0.47;;;12.80;97.50;;;;;;5080556;28;20446;-79
2021/05/14 07:38:15;;;;;;;0.60;0.60;;;13.00;97.70;;;;;;5081099;28;20499;-79
2021/05/14 07:40:41;;;;;;;0.50;0.50;;;13.10;96.50;;;;;;5080793;28;20505;-79
2021/05/14 07:43:08;;;;;;;0.60;0.60;;;13.20;96.20;;;;;;5079295;28;20482;-78
2021/05/14 07:45:34;;;;;;;0.50;0.50;;;13.40;96.40;;;;;;5076545;28;20541;-79
2021/05/14 07:48:00;;;;;;;0.63;0.63;;;13.60;96.40;;;;;;5075950;28;20451;-78
2021/05/14 07:50:27;;;;;;;0.40;0.40;;;13.80;95.90;;;;;;5075978;28;20534;-78
2021/05/14 07:52:54;;;;;;;0.67;0.57;;;13.80;95.40;;;;;;5079495;28;20451;-80
2021/05/14 07:55:21;;;;;;;0.50;0.40;;;13.80;95.60;;;;;;5080443;28;20457;-80
2021/05/14 07:57:47;;;;;;;0.50;0.50;;;13.70;95.20;;;;;;5078028;28;20454;-79
2021/05/14 08:00:15;;;;;;;0.67;0.60;;;13.70;94.80;;;;;;5078229;28;20513;-79
2021/05/14 08:02:41;;;;;;;0.50;0.47;;;13.70;94.70;;;;;;5080370;28;20584;-77
2021/05/14 08:05:08;;;;;;;0.93;0.93;;;13.60;94.70;;;;;;5085530;28;20455;-76
2021/05/14 08:07:34;;;;;;;0.73;0.50;;;13.60;95.00;;;;;;5083986;28;20457;-77
2021/05/14 08:10:01;;;;;;;0.60;0.60;;;13.80;95.30;;;;;;5084962;28;20450;-77
2021/05/14 08:12:28;;;;;;;3.57;0.77;;;13.90;95.10;;;;;;5082046;28;20447;-79
2021/05/14 08:14:55;;;;;;;0.50;0.50;;;14.00;94.60;;;;;;5079158;28;20984;-79
2021/05/14 08:17:21;;;;;;;0.53;0.50;;;14.20;94.80;;;;;;5079736;28;20834;-78
2021/05/14 08:19:48;;;;;;;0.60;0.60;;;14.40;94.50;;;;;;5079053;28;20462;-78
2021/05/14 08:22:14;;;;;;;0.77;0.60;;;14.60;93.90;;;;;;5078994;28;20450;-78
2021/05/14 08:24:40;;;;;;;0.80;0.80;;;14.80;94.10;;;;;;5079436;28;20527;-78
2021/05/14 08:27:07;;;;;;;0.60;0.57;;;14.70;92.90;;;;;;5079321;28;20451;-78
2021/05/14 08:29:35;;;;;;;1.43;0.40;;;14.40;92.70;;;;;;5079008;28;20532;-78
2021/05/14 08:32:01;;;;;;;0.47;0.47;;;14.40;93.60;;;;;;5079302;28;20483;-78
2021/05/14 08:34:27;;;;;;;5.10;1.40;;;14.50;93.80;;;;;;5079317;28;20581;-78
2021/05/14 08:36:53;;;;;;;0.60;0.50;;;14.60;93.80;;;;;;5079375;28;20450;-79
2021/05/14 08:39:20;;;;;;;1.13;0.70;;;14.70;92.60;;;;;;5079693;28;20454;-79
2021/05/14 08:41:48;;;;;;;1.37;0.80;;;14.90;92.60;;;;;;5079619;28;20490;-79
2021/05/14 08:44:14;;;;;;;3.97;0.70;;;15.20;92.90;;;;;;5076918;28;20511;-78
2021/05/14 08:46:42;;;;;;;0.60;0.60;;;15.50;92.40;;;;;;5077616;28;20455;-79
2021/05/14 08:49:11;;;;;;;0.40;0.40;;;15.70;91.50;;;;;;5075965;28;20887;-78
2021/05/14 08:51:37;;;;;;;1.13;0.50;;;15.70;91.00;;;;;;5074317;28;20447;-78
2021/05/14 08:54:06;;;;;;;1.00;0.50;;;15.80;91.30;;;;;;5074633;28;20480;-78
2021/05/14 08:56:32;;;;;;;0.60;0.60;;;15.80;91.00;;;;;;5074730;28;20478;-78
2021/05/14 08:58:59;;;;;;;1.37;0.77;;;16.10;90.80;;;;;;5073328;28;20474;-78
2021/05/14 09:01:26;;;;;;;0.67;0.67;;;16.30;90.80;;;;;;5077501;28;20490;-78
2021/05/14 09:04:01;;;;;;;0.90;0.77;;;16.60;90.70;;;;;;5087799;28;20856;-78
2021/05/14 09:06:28;;;;;;;0.60;0.50;;;16.90;89.90;;;;;;5099149;28;21027;-79
2021/05/14 09:08:59;;;;;;;0.70;0.70;;;17.10;89.30;;;;;;5092538;28;20448;-79
2021/05/14 09:11:36;;;;;;;0.80;0.77;;;17.30;87.70;;;;;;5079078;28;20477;-78
2021/05/14 09:14:02;;;;;;;0.50;0.40;;;17.60;88.10;;;;;;5078455;28;20511;-79
2021/05/14 09:16:43;;;;;;;0.93;0.50;;;17.80;86.90;;;;;;5079301;28;20517;-79
2021/05/14 09:19:11;;;;;;;1.00;0.60;;;18.20;86.40;;;;;;5078728;28;20927;-78
2021/05/14 09:21:38;;;;;;;0.50;0.50;;;18.50;86.20;;;;;;5078002;28;20477;-78
2021/05/14 09:24:05;;;;;;;0.53;0.53;;;18.70;82.40;;;;;;5079521;28;20921;-78
2021/05/14 09:26:32;;;;;;;1.07;1.07;;;18.70;81.80;;;;;;5078195;28;20449;-79
2021/05/14 09:28:59;;;;;;;1.70;0.77;;;18.50;81.00;;;;;;5077669;28;20469;-79
2021/05/14 09:31:30;;;;;;;1.10;0.60;;;18.40;82.30;;;;;;5076492;28;20458;-78
2021/05/14 09:33:58;;;;;;;0.50;0.50;;;18.10;83.40;;;;;;5077168;28;20573;-78
2021/05/14 09:36:27;;;;;;;0.43;0.43;;;17.70;84.40;;;;;;5075758;28;20805;-78
2021/05/14 09:38:55;;;;;;;0.70;0.70;;;17.40;85.60;;;;;;5073894;28;20492;-78
2021/05/14 09:41:39;;;;;;;8.53;2.77;;;17.30;86.90;;;;;;5074259;28;20487;-78
2021/05/14 09:44:08;;;;;;;1.23;0.73;;;17.30;88.90;;;;;;5076793;28;20521;-80
2021/05/14 09:46:37;;;;;;;0.50;0.50;;;17.10;88.50;;;;;;5078995;28;20445;-79
2021/05/14 09:49:05;;;;;;;0.70;0.70;;;17.00;87.30;;;;;;5078936;28;20452;-79
2021/05/14 09:51:34;;;;;;;1.53;0.87;;;16.90;88.10;;;;;;5078778;28;20470;-79
2021/05/14 09:54:26;;;;;;;2.83;0.80;;;16.80;88.00;;;;;;5078977;28;20817;-79
2021/05/14 09:57:15;;;;;;;0.70;0.70;;;16.60;87.00;;;;;;5079140;28;20451;-79
2021/05/14 09:59:41;;;;;;;0.70;0.70;;;16.50;90.00;;;;;;5078667;28;20497;-80
2021/05/14 10:02:20;;;;;;;1.50;1.13;;;16.60;89.00;;;;;;5077978;28;20492;-79
2021/05/14 10:04:46;;;;;;;3.43;2.30;;;16.60;88.50;;;;;;5078652;28;20464;-79
2021/05/14 10:07:18;;;;;;;1.27;1.20;;;16.60;88.60;;;;;;5077245;28;20455;-80
2021/05/14 10:09:51;;;;;;;8.53;6.80;;;16.50;88.30;;;;;;5078135;28;20452;-81
2021/05/14 10:12:18;;;;;;;6.40;3.50;;;16.40;88.50;;;;;;5077961;28;20457;-80
2021/05/14 10:14:45;;;;;;;4.50;2.03;;;16.40;90.00;;;;;;5078877;28;20481;-79
2021/05/14 10:17:12;;;;;;;1.50;0.60;;;16.60;90.70;;;;;;5078031;28;20463;-79
2021/05/14 10:19:40;;;;;;;2.10;1.37;;;16.70;91.40;;;;;;5078360;28;20455;-79
2021/05/14 10:22:07;;;;;;;1.63;0.90;;;16.90;91.70;;;;;;5077678;28;20488;-79
2021/05/14 10:24:42;;;;;;;0.70;0.70;;;17.00;90.10;;;;;;5077826;28;20540;-79
2021/05/14 10:27:21;;;;;;;1.03;0.93;;;17.00;90.20;;;;;;5077460;28;20448;-78
2021/05/14 10:29:49;;;;;;;0.63;0.63;;;16.90;91.20;;;;;;5076846;28;20481;-79
2021/05/14 10:32:16;;;;;;;2.87;1.27;;;16.70;92.20;;;;;;5075970;28;20457;-78
2021/05/14 10:34:43;;;;;;;1.70;0.70;;;16.30;92.40;;;;;;5072759;28;21027;-78
2021/05/14 10:37:09;;;;;;;0.93;0.50;;;16.10;92.20;;;;;;5076457;28;20481;-79
2021/05/14 10:39:38;;;;;;;0.93;0.90;;;15.90;92.10;;;;;;5076298;28;20496;-79
2021/05/14 10:42:07;;;;;;;0.83;0.80;;;15.80;92.40;;;;;;5077592;28;20497;-79
2021/05/14 10:44:47;;;;;;;1.80;0.90;;;15.80;93.00;;;;;;5078271;28;20552;-77
2021/05/14 10:47:47;;;;;;;1.53;0.93;;;15.90;92.60;;;;;;5078156;28;20455;-79
2021/05/14 10:50:36;;;;;;;0.97;0.90;;;16.10;92.90;;;;;;5077619;28;20459;-79
2021/05/14 10:53:29;;;;;;;0.80;0.60;;;16.50;91.80;;;;;;5078059;28;21002;-80
2021/05/14 10:56:05;;;;;;;2.07;1.23;;;17.00;91.50;;;;;;5078573;28;20438;-80
2021/05/14 10:58:46;;;;;;;0.70;0.57;;;17.70;91.70;;;;;;5078237;28;20445;-80
2021/05/14 11:01:34;;;;;;;2.00;0.60;;;18.50;90.80;;;;;;5074295;28;20496;-76
2021/05/14 11:04:01;;;;;;;0.70;0.63;;;19.40;87.30;;;;;;5075627;28;20560;-80
2021/05/14 11:06:39;;;;;;;1.13;0.80;;;20.30;84.30;;;;;;5073932;28;20530;-81
2021/05/14 11:09:07;;;;;;;2.17;1.00;;;20.70;84.20;;;;;;5061646;28;20474;-81
2021/05/14 11:11:34;;;;;;;0.80;0.80;;;20.80;81.00;;;;;;5076703;28;20439;-80
2021/05/14 11:14:19;;;;;;;0.93;0.67;;;21.10;81.70;;;;;;5075580;28;21009;-79
2021/05/14 11:16:46;;;;;;;0.43;0.43;;;21.00;79.80;;;;;;5075321;28;21011;-79
2021/05/14 11:19:20;;;;;;;0.90;0.70;;;20.60;80.40;;;;;;5075231;28;20443;-79
2021/05/14 11:22:11;;;;;;;0.70;0.70;;;19.80;81.90;;;;;;5073089;28;20482;-78
2021/05/14 11:24:39;;;;;;;1.20;0.57;;;19.50;84.70;;;;;;5075167;28;20523;-80
2021/05/14 11:27:11;;;;;;;1.40;0.83;;;19.30;90.70;;;;;;5067353;28;20454;-79
2021/05/14 11:29:45;;;;;;;0.70;0.70;;;19.30;90.60;;;;;;5054577;28;20520;-78
2021/05/14 11:32:32;;;;;;;0.80;0.80;;;19.20;90.40;;;;;;5056048;28;20802;-82
2021/05/14 11:35:10;;;;;;;0.60;0.60;;;19.20;89.70;;;;;;5054219;28;20475;-78
2021/05/14 11:37:38;;;;;;;0.97;0.40;;;19.40;90.50;;;;;;5054125;28;20455;-79
2021/05/14 11:40:16;;;;;;;0.57;0.50;;;19.90;85.10;;;;;;5057311;28;20473;-79
2021/05/14 11:42:45;;;;;;;0.50;0.50;;;20.50;81.80;;;;;;5055374;28;20447;-80
2021/05/14 11:45:15;;;;;;;0.40;0.40;;;20.90;81.10;;;;;;5057726;28;20479;-79
2021/05/14 11:47:47;;;;;;;0.70;0.60;;;21.40;79.40;;;;;;5059342;28;20862;-78
2021/05/14 11:50:26;;;;;;;1.33;0.77;;;22.00;76.00;;;;;;5061287;28;20542;-78
2021/05/14 11:52:52;;;;;;;0.50;0.50;;;22.40;71.90;;;;;;5060132;28;20464;-78
2021/05/14 11:55:19;;;;;;;1.33;0.50;;;22.50;68.40;;;;;;5061295;28;20451;-81
2021/05/14 11:57:50;;;;;;;0.83;0.50;;;22.60;68.80;;;;;;5061467;28;20455;-79
2021/05/14 12:00:26;;;;;;;0.40;0.40;;;23.00;69.50;;;;;;5061674;28;20464;-80
2021/05/14 12:02:52;;;;;;;0.60;0.60;;;23.90;67.80;;;;;;5061378;28;20440;-81
2021/05/14 12:05:20;;;;;;;0.40;0.40;;;24.70;67.10;;;;;;5061134;28;20441;-78
2021/05/14 12:07:46;;;;;;;0.70;0.70;;;25.20;63.10;;;;;;5055966;28;20457;-77
2021/05/14 12:10:14;;;;;;;0.80;0.77;;;25.80;61.90;;;;;;5054902;28;20978;-78
2021/05/14 12:12:42;;;;;;;1.30;0.50;;;26.10;58.80;;;;;;5054906;28;20457;-78
2021/05/14 12:15:18;;;;;;;2.40;0.60;;;26.10;56.80;;;;;;5054927;28;20496;-77
2021/05/14 12:17:46;;;;;;;0.70;0.70;;;26.00;57.30;;;;;;5059507;28;20453;-78
2021/05/14 12:20:17;;;;;;;0.47;0.47;;;25.80;56.10;;;;;;5056328;28;20467;-78
2021/05/14 12:22:49;;;;;;;0.60;0.50;;;24.80;54.30;;;;;;5058174;28;20494;-81
2021/05/14 12:25:16;;;;;;;1.17;0.83;;;24.00;55.30;;;;;;5061320;28;20881;-80
2021/05/14 12:27:43;;;;;;;0.40;0.40;;;23.60;56.70;;;;;;5057145;28;20474;-80
2021/05/14 12:30:11;;;;;;;0.80;0.60;;;23.20;56.60;;;;;;5057508;28;20466;-78
2021/05/14 12:32:38;;;;;;;1.50;0.50;;;23.10;59.00;;;;;;5057286;28;20475;-80
2021/05/14 12:35:07;;;;;;;1.00;0.50;;;23.40;59.40;;;;;;5056326;28;20467;-79
2021/05/14 12:37:33;;;;;;;0.70;0.50;;;24.00;58.40;;;;;;5060390;28;20454;-80
2021/05/14 12:40:00;;;;;;;0.60;0.50;;;24.70;57.60;;;;;;5060832;28;20795;-79
2021/05/14 12:42:28;;;;;;;0.90;0.70;;;25.00;55.00;;;;;;5057460;28;20488;-78
2021/05/14 12:44:55;;;;;;;1.10;0.60;;;25.00;54.90;;;;;;5057589;28;20472;-80
2021/05/14 12:47:23;;;;;;;0.63;0.60;;;24.90;54.70;;;;;;5058408;28;20867;-80
2021/05/14 12:49:52;;;;;;;1.10;0.70;;;24.70;54.40;;;;;;5058131;28;20451;-79
2021/05/14 12:52:23;;;;;;;1.20;0.50;;;24.60;55.00;;;;;;5058746;28;20456;-78
2021/05/14 12:54:57;;;;;;;0.60;0.43;;;24.30;55.80;;;;;;5072365;28;20474;-78
2021/05/14 12:57:26;;;;;;;0.70;0.40;;;23.50;56.90;;;;;;5074866;28;20451;-79